Time;durP1;ratioP1;P1;durP2;ratioP2;P2;SDS_P1;SDS_P2;PMS_P1;PMS_P2;Temp;Humidity;BMP_temperature;BMP_pressure;BME280_temperature;BME280_humidity;BME280_pressure;Samples;Min_cycle;Max_cycle;Signal;HPM_P1;HPM_P2
2023/09/12 00:02:51;;;;;;;11.50;9.50;;;;;;;;;;5040643;28;20535;-77
2023/09/12 00:08:31;;;;;;;17.33;13.83;;;;;;;;;;5034509;28;20487;-77
2023/09/12 00:11:06;;;;;;;17.30;11.30;;;;;;;;;;5017047;28;20470;-76
2023/09/12 00:13:40;;;;;;;21.63;12.07;;;;;;;;;;5020882;28;20508;-77
2023/09/12 00:16:12;;;;;;;16.60;11.30;;;;;;;;;;5022501;28;20534;-77
2023/09/12 00:18:46;;;;;;;21.33;11.60;;;;;;;;;;5013066;28;20457;-78
2023/09/12 00:21:20;;;;;;;13.83;11.43;;;;;;;;;;5008602;28;20459;-77
2023/09/12 00:24:02;;;;;;;16.50;10.80;;;;;;;;;;5023409;28;20779;-77
2023/09/12 00:26:39;;;;;;;17.53;13.67;;;;;;;;;;5022281;28;20470;-77
2023/09/12 00:29:11;;;;;;;20.83;13.53;;;;;;;;;;5018791;28;20475;-76
2023/09/12 00:31:46;;;;;;;19.23;13.67;;;;;;;;;;5019392;28;20459;-76
2023/09/12 00:34:24;;;;;;;18.47;14.20;;;;;;;;;;5019546;28;20455;-76
2023/09/12 00:36:57;;;;;;;17.00;15.20;;;;;;;;;;5015123;28;20462;-76
2023/09/12 00:39:28;;;;;;;20.70;14.53;;;;;;;;;;5020776;28;20534;-76
2023/09/12 00:49:52;;;;;;;22.33;14.00;;;;;;;;;;5035069;28;20485;-75
2023/09/12 00:52:22;;;;;;;18.37;13.77;;;;;;;;;;5040498;28;20566;-76
2023/09/12 00:54:53;;;;;;;20.80;16.43;;;;;;;;;;5039825;28;20886;-76
2023/09/12 00:57:22;;;;;;;17.53;14.90;;;;;;;;;;5039648;28;20458;-76
2023/09/12 00:59:51;;;;;;;20.93;16.57;;;;;;;;;;5040902;28;20554;-76
2023/09/12 01:02:23;;;;;;;18.83;16.70;;;;;;;;;;5038202;28;20453;-77
2023/09/12 01:05:09;;;;;;;20.73;16.20;;;;;;;;;;5041820;28;20459;-76
2023/09/12 01:07:48;;;;;;;16.97;14.97;;;;;;;;;;5038538;28;20458;-76
2023/09/12 01:10:21;;;;;;;18.20;15.17;;;;;;;;;;5041137;28;20461;-77
2023/09/12 01:12:49;;;;;;;19.33;14.57;;;;;;;;;;5039763;28;20936;-77
2023/09/12 01:15:17;;;;;;;22.40;15.33;;;;;;;;;;5039575;28;20485;-77
2023/09/12 01:17:50;;;;;;;19.73;16.03;;;;;;;;;;5039550;28;20454;-77
2023/09/12 01:20:26;;;;;;;19.87;16.27;;;;;;;;;;5036055;28;20451;-76
2023/09/12 01:23:18;;;;;;;19.20;17.20;;;;;;;;;;5021625;28;20451;-76
2023/09/12 01:26:12;;;;;;;21.80;18.50;;;;;;;;;;5030561;28;20462;-76
2023/09/12 01:28:44;;;;;;;23.50;18.90;;;;;;;;;;5038770;28;20756;-76
2023/09/12 01:31:15;;;;;;;21.33;18.87;;;;;;;;;;5038025;28;20447;-77
2023/09/12 01:33:45;;;;;;;23.50;21.00;;;;;;;;;;5038786;28;20881;-76
2023/09/12 01:36:13;;;;;;;23.43;19.37;;;;;;;;;;5040470;28;20508;-76
2023/09/12 01:38:49;;;;;;;21.03;18.63;;;;;;;;;;5039606;28;20560;-76
2023/09/12 03:51:48;;;;;;;29.23;24.53;;;;;;;;;;5055051;23;20479;-77
2023/09/12 03:54:27;;;;;;;34.73;25.60;;;;;;;;;;5052159;28;20703;-76
2023/09/12 03:57:00;;;;;;;26.97;24.03;;;;;;;;;;5059700;28;20449;-77
2023/09/12 03:59:36;;;;;;;29.47;23.70;;;;;;;;;;5058345;28;20457;-77
2023/09/12 04:02:12;;;;;;;35.53;24.43;;;;;;;;;;5057672;28;20449;-76
2023/09/12 04:04:49;;;;;;;37.20;24.00;;;;;;;;;;5057453;28;20476;-77
2023/09/12 04:07:24;;;;;;;36.63;24.83;;;;;;;;;;5055794;28;20437;-77
2023/09/12 04:09:55;;;;;;;33.80;23.10;;;;;;;;;;5055852;28;20476;-77
2023/09/12 04:12:28;;;;;;;32.20;25.37;;;;;;;;;;5055632;28;20457;-76
2023/09/12 04:14:59;;;;;;;33.13;25.57;;;;;;;;;;5056995;28;20535;-76
2023/09/12 04:17:31;;;;;;;29.60;25.00;;;;;;;;;;5058315;28;20449;-76
2023/09/12 04:20:22;;;;;;;33.10;26.07;;;;;;;;;;5057716;28;20469;-76
2023/09/12 04:23:02;;;;;;;32.00;24.97;;;;;;;;;;5057975;28;20468;-76
2023/09/12 04:25:42;;;;;;;33.60;26.17;;;;;;;;;;5056532;28;20446;-77
2023/09/12 04:28:11;;;;;;;27.57;24.67;;;;;;;;;;5059593;28;20766;-76
2023/09/12 04:30:48;;;;;;;31.67;24.97;;;;;;;;;;5078514;28;21065;-77
2023/09/12 04:33:23;;;;;;;29.13;25.67;;;;;;;;;;5076744;28;20482;-77
2023/09/12 04:36:00;;;;;;;33.43;25.50;;;;;;;;;;5074807;28;20490;-77
2023/09/12 04:38:32;;;;;;;40.77;28.70;;;;;;;;;;5068573;28;20454;-77
2023/09/12 04:41:16;;;;;;;33.50;25.57;;;;;;;;;;5060493;28;20449;-77
2023/09/12 04:44:15;;;;;;;32.63;26.53;;;;;;;;;;5061721;28;20875;-77
2023/09/12 04:46:48;;;;;;;30.00;25.80;;;;;;;;;;5059399;28;20456;-77
2023/09/12 04:49:26;;;;;;;30.57;26.60;;;;;;;;;;5064878;28;20496;-76
2023/09/12 04:52:29;;;;;;;28.87;25.37;;;;;;;;;;5081868;28;20551;-77
2023/09/12 04:58:08;;;;;;;32.50;27.20;;;;;;;;;;5013271;28;20478;-77
2023/09/12 05:03:36;;;;;;;36.10;26.10;;;;;;;;;;5059083;28;20468;-77
2023/09/12 05:06:13;;;;;;;36.23;29.43;;;;;;;;;;5074380;28;20461;-77
2023/09/12 05:08:44;;;;;;;35.03;28.70;;;;;;;;;;5055172;28;20892;-77
2023/09/12 05:11:14;;;;;;;36.40;28.80;;;;;;;;;;5065062;28;20441;-76
2023/09/12 05:14:11;;;;;;;31.50;28.13;;;;;;;;;;5077852;28;20527;-77
2023/09/12 05:17:11;;;;;;;33.53;28.70;;;;;;;;;;5055269;28;20498;-77
2023/09/12 05:22:05;;;;;;;31.63;26.53;;;;;;;;;;5080829;28;20451;-77
2023/09/12 05:25:03;;;;;;;33.93;27.30;;;;;;;;;;5073962;28;20258;-78
2023/09/12 05:33:44;;;;;;;;;;;;;;;;;;;;;
2023/09/12 05:36:22;;;;;;;33.13;26.17;;;;;;;;;;5056948;28;21256;-78
2023/09/12 05:39:09;;;;;;;30.70;24.70;;;;;;;;;;5067991;28;20891;-79
2023/09/12 05:41:53;;;;;;;27.30;24.17;;;;;;;;;;5075342;28;20460;-78
2023/09/12 05:54:13;;;;;;;27.93;21.63;;;;;;;;;;5070056;28;20561;-79
2023/09/12 05:59:29;;;;;;;28.63;22.73;;;;;;;;;;5056877;28;20479;-74
2023/09/12 06:02:00;;;;;;;28.20;23.30;;;;;;;;;;5053294;28;20875;-76
2023/09/12 06:07:45;;;;;;;26.23;23.20;;;;;;;;;;5055852;28;20480;-76
2023/09/12 06:10:39;;;;;;;27.93;23.80;;;;;;;;;;5084965;28;20456;-76
2023/09/12 06:42:12;;;;;;;28.80;23.30;;;;;;;;;;5073361;28;20249;-77
2023/09/12 06:48:37;;;;;;;26.37;23.40;;;;;;;;;;4995414;28;20464;-77
2023/09/12 06:56:58;;;;;;;;;;;;;;;;;;;;;
2023/09/12 06:59:59;;;;;;;25.63;21.47;;;;;;;;;;5038793;28;20222;-76
2023/09/12 07:28:10;;;;;;;30.73;22.47;;;;;;;;;;4875950;29;20459;-77
2023/09/12 07:31:05;;;;;;;27.53;22.80;;;;;;;;;;4970107;28;20479;-76
2023/09/12 07:33:55;;;;;;;29.47;24.27;;;;;;;;;;5076851;28;21081;-77
2023/09/12 07:36:28;;;;;;;30.13;24.43;;;;;;;;;;5072389;28;21239;-76
2023/09/12 07:39:05;;;;;;;25.67;22.07;;;;;;;;;;5057503;28;20765;-77
2023/09/12 07:41:36;;;;;;;28.73;23.07;;;;;;;;;;5053907;28;20473;-76
2023/09/12 07:44:20;;;;;;;;;;;;;;;;;;;;;
2023/09/12 07:46:50;;;;;;;30.33;24.00;;;;;;;;;;5054315;28;20441;-77
2023/09/12 07:49:21;;;;;;;32.70;24.73;;;;;;;;;;5059314;28;21062;-77
2023/09/12 07:51:51;;;;;;;30.40;22.80;;;;;;;;;;5064374;28;20574;-77
2023/09/12 07:54:50;;;;;;;30.07;22.80;;;;;;;;;;5059859;28;20453;-77
2023/09/12 07:57:38;;;;;;;;;;;;;;;;;;;;;
2023/09/12 08:00:22;;;;;;;32.37;25.73;;;;;;;;;;5074001;28;20536;-77
2023/09/12 08:03:00;;;;;;;32.13;25.80;;;;;;;;;;5074462;28;20458;-77
2023/09/12 08:05:41;;;;;;;28.60;23.70;;;;;;;;;;5076086;28;20466;-76
2023/09/12 08:08:13;;;;;;;31.90;25.07;;;;;;;;;;5074341;28;20854;-75
2023/09/12 08:11:02;;;;;;;31.97;25.60;;;;;;;;;;5074102;28;20491;-76
2023/09/12 08:13:34;;;;;;;30.27;24.63;;;;;;;;;;5066738;28;20465;-76
2023/09/12 08:18:47;;;;;;;30.27;24.77;;;;;;;;;;5047701;28;20320;-77
2023/09/12 08:21:31;;;;;;;32.47;24.67;;;;;;;;;;5046844;28;20488;-77
2023/09/12 08:24:03;;;;;;;31.40;24.30;;;;;;;;;;5078456;28;20464;-76
2023/09/12 08:26:35;;;;;;;28.60;23.03;;;;;;;;;;5076452;28;20457;-76
2023/09/12 08:29:12;;;;;;;29.07;23.90;;;;;;;;;;5077824;28;20519;-76
2023/09/12 08:31:41;;;;;;;28.30;23.07;;;;;;;;;;5077666;28;20464;-77
2023/09/12 08:34:12;;;;;;;29.77;21.57;;;;;;;;;;5075956;28;20449;-75
2023/09/12 08:36:53;;;;;;;;;;;;;;;;;;;;;
2023/09/12 08:40:07;;;;;;;;;;;;;;;;;;;;;
2023/09/12 08:42:43;;;;;;;25.57;20.83;;;;;;;;;;5052905;28;20535;-75
2023/09/12 08:51:16;;;;;;;26.93;21.43;;;;;;;;;;5057647;28;20448;-76
2023/09/12 08:54:18;;;;;;;28.60;23.10;;;;;;;;;;5056570;28;20463;-75
2023/09/12 09:03:15;;;;;;;27.93;22.13;;;;;;;;;;5012198;28;20451;-75
2023/09/12 09:05:59;;;;;;;25.57;20.90;;;;;;;;;;5027424;28;20870;-75
2023/09/12 09:08:31;;;;;;;24.97;19.70;;;;;;;;;;5014018;28;20482;-73
2023/09/12 09:11:54;;;;;;;28.10;21.80;;;;;;;;;;5017456;28;20513;-76
2023/09/12 09:14:56;;;;;;;;;;;;;;;;;;;;;
2023/09/12 09:17:43;;;;;;;27.93;22.40;;;;;;;;;;5022532;28;20489;-75
2023/09/12 09:20:29;;;;;;;25.57;21.13;;;;;;;;;;5038378;28;20461;-74
2023/09/12 09:23:15;;;;;;;25.97;20.80;;;;;;;;;;5034443;28;20470;-74
2023/09/12 09:25:51;;;;;;;21.70;18.40;;;;;;;;;;5034567;28;20909;-74
2023/09/12 09:28:43;;;;;;;21.90;18.80;;;;;;;;;;5034558;28;20461;-76
2023/09/12 09:32:00;;;;;;;18.87;16.87;;;;;;;;;;5045689;28;20524;-74
2023/09/12 09:40:30;;;;;;;20.10;17.90;;;;;;;;;;5045454;28;20584;-75
2023/09/12 09:43:04;;;;;;;17.63;15.63;;;;;;;;;;5056271;28;20445;-77
2023/09/12 09:45:51;;;;;;;19.47;17.47;;;;;;;;;;5072763;28;20463;-73
2023/09/12 09:48:28;;;;;;;20.60;18.13;;;;;;;;;;5073344;28;20448;-75
2023/09/12 09:51:21;;;;;;;18.10;15.97;;;;;;;;;;5065586;28;20555;-75
2023/09/12 09:57:05;;;;;;;24.97;16.27;;;;;;;;;;5050610;28;20617;-75
2023/09/12 10:00:14;;;;;;;17.33;14.53;;;;;;;;;;5060835;28;20457;-75
2023/09/12 10:06:10;;;;;;;15.13;12.80;;;;;;;;;;5071691;28;20452;-75
2023/09/12 10:09:16;;;;;;;13.63;11.73;;;;;;;;;;5073625;28;20472;-75
2023/09/12 10:21:23;;;;;;;13.70;9.87;;;;;;;;;;5002325;28;20484;-77
2023/09/12 10:23:52;;;;;;;17.10;11.17;;;;;;;;;;5052445;28;20468;-75
2023/09/12 10:26:48;;;;;;;14.20;11.20;;;;;;;;;;5055501;28;20484;-76
2023/09/12 10:33:12;;;;;;;12.87;8.37;;;;;;;;;;5061724;28;20771;-75
2023/09/12 10:36:16;;;;;;;9.40;8.40;;;;;;;;;;5051931;28;20544;-75
2023/09/12 10:39:25;;;;;;;11.73;10.43;;;;;;;;;;5042514;28;21098;-76
2023/09/12 10:42:15;;;;;;;13.60;10.80;;;;;;;;;;5066068;28;20496;-75
2023/09/12 10:44:47;;;;;;;13.10;11.40;;;;;;;;;;5075408;28;20441;-74
2023/09/12 10:53:44;;;;;;;13.57;10.73;;;;;;;;;;5053140;28;20449;-78
2023/09/12 11:05:16;;;;;;;12.97;10.80;;;;;;;;;;5057228;28;20452;-76
2023/09/12 11:08:03;;;;;;;14.10;11.43;;;;;;;;;;5058154;28;20552;-77
2023/09/12 11:14:05;;;;;;;13.23;11.80;;;;;;;;;;5049646;28;20552;-75
2023/09/12 11:16:43;;;;;;;15.27;12.53;;;;;;;;;;5054874;28;20454;-76
2023/09/12 11:22:27;;;;;;;16.27;13.60;;;;;;;;;;5047821;28;20692;-76
2023/09/12 11:25:05;;;;;;;16.90;11.87;;;;;;;;;;5050346;28;20531;-77
2023/09/12 11:27:56;;;;;;;14.07;11.70;;;;;;;;;;5046151;28;20466;-77
2023/09/12 11:30:43;;;;;;;12.40;11.00;;;;;;;;;;5034159;28;20450;-76
2023/09/12 11:33:24;;;;;;;12.87;9.90;;;;;;;;;;5034102;28;20493;-77
2023/09/12 11:36:19;;;;;;;13.90;10.83;;;;;;;;;;5043584;28;20507;-77
2023/09/12 11:39:12;;;;;;;12.73;10.47;;;;;;;;;;4990667;28;20523;-77
2023/09/12 11:54:45;;;;;;;13.70;11.10;;;;;;;;;;1264050;22;21577;-77
2023/09/12 11:57:14;;;;;;;11.57;10.10;;;;;;;;;;5034772;28;20840;-76
2023/09/12 11:59:52;;;;;;;18.07;11.80;;;;;;;;;;5037444;28;20449;-77
2023/09/12 12:02:20;;;;;;;11.43;9.80;;;;;;;;;;5039804;28;20484;-75
2023/09/12 12:04:50;;;;;;;12.17;10.53;;;;;;;;;;5035700;28;20686;-77
2023/09/12 12:07:21;;;;;;;10.80;9.70;;;;;;;;;;5035382;28;20460;-76
2023/09/12 12:12:58;;;;;;;13.93;11.27;;;;;;;;;;5032027;28;20458;-77
2023/09/12 12:19:12;;;;;;;14.53;10.60;;;;;;;;;;5037951;28;20780;-78
2023/09/12 12:24:57;;;;;;;11.83;8.40;;;;;;;;;;5031172;28;20438;-78
2023/09/12 12:27:40;;;;;;;14.80;10.37;;;;;;;;;;5035925;28;20477;-76
2023/09/12 12:30:29;;;;;;;16.23;11.00;;;;;;;;;;5036109;28;20677;-77
2023/09/12 12:33:10;;;;;;;13.77;10.90;;;;;;;;;;5035840;28;20564;-77
2023/09/12 12:35:47;;;;;;;13.80;10.00;;;;;;;;;;5038517;28;20549;-78
2023/09/12 12:38:30;;;;;;;13.83;10.17;;;;;;;;;;5037565;28;20508;-77
2023/09/12 13:01:56;;;;;;;14.73;10.93;;;;;;;;;;5378004;22;20509;-76
2023/09/12 13:07:48;;;;;;;12.10;9.40;;;;;;;;;;5032789;28;20661;-77
2023/09/12 13:16:41;;;;;;;15.40;10.90;;;;;;;;;;5021861;28;20761;-75
2023/09/12 13:19:17;;;;;;;10.93;8.60;;;;;;;;;;5051813;28;20489;-75
2023/09/12 13:21:55;;;;;;;10.90;7.10;;;;;;;;;;5050124;28;20460;-79
2023/09/12 13:24:36;;;;;;;15.10;8.30;;;;;;;;;;5036793;28;20458;-74
2023/09/12 13:27:19;;;;;;;9.00;7.67;;;;;;;;;;5033333;28;20462;-75
2023/09/12 13:36:04;;;;;;;10.47;7.80;;;;;;;;;;5049822;28;20460;-74
2023/09/12 13:38:47;;;;;;;13.63;8.33;;;;;;;;;;5045908;28;20933;-75
2023/09/12 13:41:32;;;;;;;12.37;9.57;;;;;;;;;;5054692;28;20473;-76
2023/09/12 13:44:20;;;;;;;10.37;8.30;;;;;;;;;;5023040;28;20549;-75
2023/09/12 13:52:46;;;;;;;13.10;10.30;;;;;;;;;;5061018;28;20488;-77
2023/09/12 13:55:48;;;;;;;9.43;7.33;;;;;;;;;;5075969;28;20480;-77
2023/09/12 14:04:49;;;;;;;11.00;8.30;;;;;;;;;;5057136;28;20484;-77
2023/09/12 14:15:14;;;;;;;10.33;6.43;;;;;;;;;;5069549;28;20507;-76
2023/09/12 14:17:57;;;;;;;8.23;6.17;;;;;;;;;;5064562;28;20279;-77
2023/09/12 15:08:26;;;;;;;6.03;4.60;;;;;;;;;;4992661;28;20648;-78
2023/09/12 15:14:24;;;;;;;7.03;4.50;;;;;;;;;;4978825;28;20972;-77
2023/09/12 15:29:12;;;;;;;7.87;4.70;;;;;;;;;;5065963;28;20520;-76
2023/09/12 15:38:40;;;;;;;6.57;5.00;;;;;;;;;;5029545;28;20496;-76
2023/09/12 15:50:13;;;;;;;6.87;4.53;;;;;;;;;;5051041;28;20602;-77
2023/09/12 15:55:30;;;;;;;7.10;3.87;;;;;;;;;;5035559;28;20442;-76
2023/09/12 15:58:26;;;;;;;5.27;4.07;;;;;;;;;;5020097;28;20470;-76
2023/09/12 16:04:24;;;;;;;7.10;4.60;;;;;;;;;;4954439;28;20653;-76
2023/09/12 16:07:26;;;;;;;6.80;4.93;;;;;;;;;;4933141;28;20485;-76
2023/09/12 16:13:10;;;;;;;6.67;3.97;;;;;;;;;;4963640;28;20443;-77
2023/09/12 16:15:59;;;;;;;7.50;4.80;;;;;;;;;;4969938;28;20449;-78
2023/09/12 16:18:42;;;;;;;8.03;4.97;;;;;;;;;;4969154;28;20645;-77
2023/09/12 16:21:12;;;;;;;10.53;5.57;;;;;;;;;;4970864;28;20461;-76
2023/09/12 16:26:34;;;;;;;7.70;6.27;;;;;;;;;;4966495;28;20457;-77
2023/09/12 16:29:33;;;;;;;;;;;;;;;;;;;;;
2023/09/12 16:32:14;;;;;;;7.50;5.20;;;;;;;;;;5029165;28;20570;-78
2023/09/12 16:35:01;;;;;;;7.60;5.33;;;;;;;;;;5067851;28;20526;-76
2023/09/12 16:41:06;;;;;;;8.83;5.70;;;;;;;;;;5065642;28;20457;-74
2023/09/12 16:46:16;;;;;;;7.80;6.30;;;;;;;;;;5066863;28;20495;-74
2023/09/12 16:48:58;;;;;;;11.77;8.33;;;;;;;;;;5069836;28;20201;-74
2023/09/12 16:54:24;;;;;;;8.53;5.10;;;;;;;;;;5091326;28;20478;-77
2023/09/12 16:56:59;;;;;;;9.90;5.60;;;;;;;;;;5075149;28;20460;-75
2023/09/12 16:59:33;;;;;;;8.50;5.90;;;;;;;;;;5073141;28;20480;-78
2023/09/12 17:02:26;;;;;;;6.40;5.03;;;;;;;;;;5073721;28;20522;-77
2023/09/12 17:05:09;;;;;;;7.53;4.93;;;;;;;;;;5067263;28;20448;-76
2023/09/12 17:10:42;;;;;;;5.70;4.00;;;;;;;;;;5083844;28;20442;-74
2023/09/12 17:13:29;;;;;;;6.17;4.40;;;;;;;;;;5092418;28;20428;-73
2023/09/12 17:19:26;;;;;;;7.50;5.00;;;;;;;;;;5025723;28;20577;-75
2023/09/12 17:21:58;;;;;;;8.30;4.33;;;;;;;;;;5007158;28;20485;-76
2023/09/12 17:27:36;;;;;;;6.40;5.77;;;;;;;;;;5052291;28;20528;-75
2023/09/12 17:30:40;;;;;;;46.80;41.13;;;;;;;;;;5068506;28;20567;-76
2023/09/12 17:45:49;;;;;;;10.27;6.70;;;;;;;;;;5058939;28;20538;-75
2023/09/12 17:48:40;;;;;;;6.90;5.10;;;;;;;;;;5066261;28;20579;-75
2023/09/12 17:54:33;;;;;;;9.67;6.90;;;;;;;;;;5062138;28;20552;-76
2023/09/12 18:07:03;;;;;;;9.00;6.20;;;;;;;;;;5014212;28;21180;-75
2023/09/12 18:57:21;;;;;;;9.33;8.07;;;;;;;;;;5064063;28;20488;-77
2023/09/12 19:06:40;;;;;;;12.27;8.80;;;;;;;;;;5077337;28;20419;-75
2023/09/12 19:09:29;;;;;;;11.73;8.63;;;;;;;;;;5034894;28;20624;-76
2023/09/12 19:12:03;;;;;;;15.30;8.90;;;;;;;;;;5058856;28;20523;-77
2023/09/12 20:03:31;;;;;;;11.27;9.07;;;;;;;;;;5036810;28;20929;-76
2023/09/12 20:06:06;;;;;;;12.13;9.37;;;;;;;;;;5041651;28;20438;-76
2023/09/12 20:11:41;;;;;;;14.43;8.17;;;;;;;;;;5018829;28;20432;-76
2023/09/12 20:14:11;;;;;;;8.87;7.60;;;;;;;;;;5057847;28;20473;-77
2023/09/12 20:16:47;;;;;;;9.30;8.03;;;;;;;;;;5055772;28;20962;-76
2023/09/12 20:19:18;;;;;;;11.20;8.40;;;;;;;;;;5059426;28;20477;-77
2023/09/12 20:21:49;;;;;;;10.53;8.63;;;;;;;;;;5057839;28;20468;-77
2023/09/12 20:24:19;;;;;;;10.20;8.60;;;;;;;;;;5055777;28;20638;-76
2023/09/12 20:27:22;;;;;;;12.40;7.90;;;;;;;;;;5055869;28;20454;-76
2023/09/12 20:30:11;;;;;;;9.80;7.63;;;;;;;;;;5057123;28;20464;-77
2023/09/12 20:38:50;;;;;;;10.13;7.20;;;;;;;;;;5015909;28;20518;-77
2023/09/12 20:54:20;;;;;;;14.67;8.27;;;;;;;;;;5467974;22;22047;-77
2023/09/12 20:56:52;;;;;;;10.70;7.60;;;;;;;;;;4997323;28;20536;-77
2023/09/12 20:59:33;;;;;;;12.80;10.13;;;;;;;;;;4993497;28;20940;-77
2023/09/12 21:02:04;;;;;;;10.30;8.47;;;;;;;;;;5000654;28;20471;-77
2023/09/12 21:04:55;;;;;;;9.27;7.73;;;;;;;;;;4998371;28;20463;-78
2023/09/12 21:07:31;;;;;;;10.13;8.97;;;;;;;;;;4979033;28;20728;-76
2023/09/12 21:10:14;;;;;;;11.83;9.27;;;;;;;;;;4978774;28;20868;-76
2023/09/12 21:12:46;;;;;;;10.50;8.47;;;;;;;;;;4976703;28;20465;-76
2023/09/12 21:15:51;;;;;;;12.57;8.47;;;;;;;;;;4977025;28;20872;-78
2023/09/12 21:18:22;;;;;;;9.80;8.23;;;;;;;;;;5000042;28;20471;-77
2023/09/12 21:21:08;;;;;;;12.80;8.70;;;;;;;;;;4996046;28;20484;-78
2023/09/12 21:26:48;;;;;;;20.43;12.60;;;;;;;;;;4989519;28;20491;-78
2023/09/12 21:29:21;;;;;;;35.00;20.57;;;;;;;;;;4999861;28;20575;-77
2023/09/12 21:32:24;;;;;;;18.93;12.70;;;;;;;;;;5000313;28;20460;-77
2023/09/12 21:35:08;;;;;;;12.20;8.47;;;;;;;;;;5001249;28;20448;-76
2023/09/12 21:38:04;;;;;;;10.10;7.87;;;;;;;;;;4998990;28;20449;-78
2023/09/12 21:45:38;;;;;;;9.17;7.97;;;;;;;;;;5059253;28;20602;-78
2023/09/12 21:48:07;;;;;;;9.27;7.50;;;;;;;;;;5062676;28;20819;-77
2023/09/12 21:50:38;;;;;;;8.67;6.60;;;;;;;;;;5063961;28;20453;-78
2023/09/12 21:53:06;;;;;;;11.63;7.00;;;;;;;;;;5062661;28;20442;-78
2023/09/12 21:55:35;;;;;;;9.10;6.60;;;;;;;;;;5061439;28;20461;-79
2023/09/12 21:58:04;;;;;;;12.70;8.03;;;;;;;;;;5061861;28;20492;-78
2023/09/12 22:00:39;;;;;;;8.20;6.20;;;;;;;;;;5063219;28;20575;-79
2023/09/12 22:03:08;;;;;;;8.20;6.80;;;;;;;;;;5061996;28;20445;-79
2023/09/12 22:05:37;;;;;;;8.13;6.37;;;;;;;;;;5061785;28;20521;-77
2023/09/12 22:08:06;;;;;;;10.60;7.20;;;;;;;;;;5059690;28;20465;-79
2023/09/12 22:10:47;;;;;;;9.87;6.83;;;;;;;;;;5063836;28;20457;-79
2023/09/12 22:13:15;;;;;;;7.57;6.43;;;;;;;;;;5061748;28;20453;-79
2023/09/12 22:15:44;;;;;;;7.93;6.53;;;;;;;;;;5060506;28;20858;-79
2023/09/12 22:18:14;;;;;;;9.27;6.80;;;;;;;;;;5062843;28;20461;-79
2023/09/12 22:20:44;;;;;;;10.60;6.50;;;;;;;;;;5062242;28;20610;-77
2023/09/12 22:23:12;;;;;;;10.33;6.77;;;;;;;;;;5062728;28;20485;-80
2023/09/12 22:25:40;;;;;;;8.90;6.83;;;;;;;;;;5062079;28;20539;-77
2023/09/12 22:28:10;;;;;;;8.83;6.97;;;;;;;;;;5061805;28;20561;-78
2023/09/12 22:30:47;;;;;;;8.13;6.40;;;;;;;;;;5063869;28;20449;-78
2023/09/12 22:33:17;;;;;;;10.10;6.20;;;;;;;;;;5068195;28;20449;-79
2023/09/12 22:35:54;;;;;;;9.80;5.47;;;;;;;;;;5066778;28;20809;-78
2023/09/12 22:38:25;;;;;;;15.50;6.73;;;;;;;;;;5066668;28;20457;-78
2023/09/12 22:51:03;;;;;;;8.77;6.40;;;;;;;;;;4986509;28;20509;-77
2023/09/12 22:53:48;;;;;;;9.50;7.03;;;;;;;;;;5051806;28;20482;-78
2023/09/12 22:56:27;;;;;;;8.90;7.20;;;;;;;;;;5055140;28;20449;-77
2023/09/12 22:58:56;;;;;;;7.83;6.60;;;;;;;;;;5063387;28;21123;-77
2023/09/12 23:01:26;;;;;;;9.30;6.80;;;;;;;;;;5061223;28;20477;-77
2023/09/12 23:04:14;;;;;;;7.60;6.03;;;;;;;;;;5044756;28;20564;-77
2023/09/12 23:06:50;;;;;;;8.17;5.40;;;;;;;;;;5045957;28;20581;-77
2023/09/12 23:09:38;;;;;;;;;;;;;;;;;;;;;
2023/09/12 23:12:17;;;;;;;8.27;5.77;;;;;;;;;;5066535;28;20476;-78
2023/09/12 23:14:54;;;;;;;7.10;5.47;;;;;;;;;;5064354;28;20461;-78
2023/09/12 23:17:39;;;;;;;7.20;5.77;;;;;;;;;;5066172;28;20630;-77
2023/09/12 23:20:11;;;;;;;6.80;4.83;;;;;;;;;;5065169;28;20567;-77
2023/09/12 23:22:51;;;;;;;7.50;6.00;;;;;;;;;;5064644;28;20452;-78
2023/09/12 23:25:32;;;;;;;6.60;5.00;;;;;;;;;;5064183;28;20468;-77
2023/09/12 23:28:06;;;;;;;6.90;6.07;;;;;;;;;;5065206;28;20453;-77
2023/09/12 23:30:46;;;;;;;7.90;6.00;;;;;;;;;;5063900;28;20441;-77
2023/09/12 23:33:24;;;;;;;7.37;5.83;;;;;;;;;;5077098;28;20455;-77
2023/09/12 23:35:59;;;;;;;9.30;5.47;;;;;;;;;;5082265;28;20449;-77
2023/09/12 23:38:36;;;;;;;7.73;5.30;;;;;;;;;;5088830;28;20505;-78
2023/09/12 23:49:03;;;;;;;6.53;5.33;;;;;;;;;;4826576;22;20469;-77
2023/09/12 23:51:31;;;;;;;7.03;5.77;;;;;;;;;;5023737;28;20445;-77
2023/09/12 23:54:02;;;;;;;5.90;4.50;;;;;;;;;;5023477;28;20471;-77
2023/09/12 23:56:35;;;;;;;5.53;4.20;;;;;;;;;;5022371;28;20439;-76
2023/09/12 23:59:04;;;;;;;9.73;4.00;;;;;;;;;;5025721;28;20455;-78
